sensor_id;sensor_type;location;lat;lon;timestamp;pressure;altitude;pressure_sealevel;temperature;humidity
9764;BME280;4921;43.214;27.936;2023-11-19T00:01:58;99762.31;;;4.21;100.00
9764;BME280;4921;43.214;27.936;2023-11-19T00:04:25;99799.44;;;4.23;100.00
9764;BME280;4921;43.214;27.936;2023-11-19T00:06:52;99803.84;;;4.35;100.00
9764;BME280;4921;43.214;27.936;2023-11-19T00:09:19;99813.53;;;4.33;100.00
9764;BME280;4921;43.214;27.936;2023-11-19T00:11:46;99829.47;;;4.54;100.00
9764;BME280;4921;43.214;27.936;2023-11-19T00:14:14;99836.97;;;4.46;100.00
9764;BME280;4921;43.214;27.936;2023-11-19T00:16:42;99839.88;;;4.41;100.00
9764;BME280;4921;43.214;27.936;2023-11-19T00:19:10;99852.56;;;4.46;100.00
9764;BME280;4921;43.214;27.936;2023-11-19T00:21:37;99879.97;;;4.51;100.00
9764;BME280;4921;43.214;27.936;2023-11-19T00:24:04;99836.22;;;4.44;100.00
9764;BME280;4921;43.214;27.936;2023-11-19T00:26:32;99870.16;;;4.42;100.00
9764;BME280;4921;43.214;27.936;2023-11-19T00:28:59;99869.13;;;4.45;100.00
9764;BME280;4921;43.214;27.936;2023-11-19T00:31:27;99894.00;;;4.49;100.00
9764;BME280;4921;43.214;27.936;2023-11-19T00:33:54;99891.03;;;4.55;100.00
9764;BME280;4921;43.214;27.936;2023-11-19T00:36:21;99892.34;;;4.48;100.00
9764;BME280;4921;43.214;27.936;2023-11-19T00:38:49;99879.41;;;4.46;100.00
9764;BME280;4921;43.214;27.936;2023-11-19T00:41:18;99908.41;;;4.54;100.00
9764;BME280;4921;43.214;27.936;2023-11-19T00:43:45;99899.22;;;4.61;100.00
9764;BME280;4921;43.214;27.936;2023-11-19T00:46:12;99908.09;;;4.59;100.00
9764;BME280;4921;43.214;27.936;2023-11-19T00:48:40;99908.91;;;4.59;100.00
9764;BME280;4921;43.214;27.936;2023-11-19T00:51:07;99921.41;;;4.54;100.00
9764;BME280;4921;43.214;27.936;2023-11-19T00:53:34;99932.75;;;4.66;100.00
9764;BME280;4921;43.214;27.936;2023-11-19T00:56:01;99940.38;;;4.69;100.00
9764;BME280;4921;43.214;27.936;2023-11-19T00:58:28;99949.53;;;4.62;100.00
9764;BME280;4921;43.214;27.936;2023-11-19T01:00:56;99975.13;;;4.55;100.00
9764;BME280;4921;43.214;27.936;2023-11-19T01:03:23;99960.16;;;4.59;100.00
9764;BME280;4921;43.214;27.936;2023-11-19T01:05:51;99985.78;;;4.65;100.00
9764;BME280;4921;43.214;27.936;2023-11-19T01:08:19;99990.47;;;4.73;100.00
9764;BME280;4921;43.214;27.936;2023-11-19T01:10:46;100001.97;;;4.70;100.00
9764;BME280;4921;43.214;27.936;2023-11-19T01:13:13;99998.28;;;4.73;100.00
9764;BME280;4921;43.214;27.936;2023-11-19T01:15:40;100012.03;;;4.75;100.00
9764;BME280;4921;43.214;27.936;2023-11-19T01:18:08;100016.22;;;4.77;100.00
9764;BME280;4921;43.214;27.936;2023-11-19T01:20:36;100031.06;;;4.89;100.00
9764;BME280;4921;43.214;27.936;2023-11-19T01:23:05;100035.91;;;4.81;100.00
9764;BME280;4921;43.214;27.936;2023-11-19T01:25:33;100041.13;;;4.81;100.00
9764;BME280;4921;43.214;27.936;2023-11-19T01:28:01;100052.50;;;4.80;100.00
9764;BME280;4921;43.214;27.936;2023-11-19T01:30:28;100032.41;;;4.95;100.00
9764;BME280;4921;43.214;27.936;2023-11-19T01:32:55;100059.84;;;5.00;100.00
9764;BME280;4921;43.214;27.936;2023-11-19T01:35:22;100054.94;;;4.96;100.00
9764;BME280;4921;43.214;27.936;2023-11-19T01:37:48;100047.63;;;4.88;100.00
9764;BME280;4921;43.214;27.936;2023-11-19T01:40:20;100048.56;;;4.87;100.00
9764;BME280;4921;43.214;27.936;2023-11-19T01:42:47;100058.03;;;4.88;100.00
9764;BME280;4921;43.214;27.936;2023-11-19T01:45:22;100060.53;;;4.90;100.00
9764;BME280;4921;43.214;27.936;2023-11-19T01:47:52;100033.25;;;4.83;100.00
9764;BME280;4921;43.214;27.936;2023-11-19T01:50:19;100044.47;;;4.83;100.00
9764;BME280;4921;43.214;27.936;2023-11-19T01:52:46;100071.78;;;4.90;100.00
9764;BME280;4921;43.214;27.936;2023-11-19T01:55:13;100061.88;;;4.83;100.00
9764;BME280;4921;43.214;27.936;2023-11-19T01:57:42;100059.28;;;4.83;100.00
9764;BME280;4921;43.214;27.936;2023-11-19T02:00:10;100066.44;;;4.79;100.00
9764;BME280;4921;43.214;27.936;2023-11-19T02:02:39;100051.22;;;4.73;100.00
9764;BME280;4921;43.214;27.936;2023-11-19T02:05:06;100078.09;;;4.74;100.00
9764;BME280;4921;43.214;27.936;2023-11-19T02:07:33;100075.91;;;4.68;100.00
9764;BME280;4921;43.214;27.936;2023-11-19T02:10:00;100075.91;;;4.68;100.00
9764;BME280;4921;43.214;27.936;2023-11-19T02:12:31;100069.84;;;4.67;100.00
9764;BME280;4921;43.214;27.936;2023-11-19T02:15:00;100099.56;;;4.77;100.00
9764;BME280;4921;43.214;27.936;2023-11-19T02:17:28;100089.66;;;4.70;100.00
9764;BME280;4921;43.214;27.936;2023-11-19T02:19:57;100097.25;;;4.73;100.00
9764;BME280;4921;43.214;27.936;2023-11-19T02:22:24;100107.59;;;4.60;100.00
9764;BME280;4921;43.214;27.936;2023-11-19T02:24:52;100121.13;;;4.52;100.00
9764;BME280;4921;43.214;27.936;2023-11-19T02:27:28;100085.53;;;4.39;100.00
9764;BME280;4921;43.214;27.936;2023-11-19T02:29:59;100108.63;;;4.57;100.00
9764;BME280;4921;43.214;27.936;2023-11-19T02:32:27;100107.25;;;4.52;100.00
9764;BME280;4921;43.214;27.936;2023-11-19T02:34:56;100093.75;;;4.59;100.00
9764;BME280;4921;43.214;27.936;2023-11-19T02:37:23;100090.13;;;4.62;100.00
9764;BME280;4921;43.214;27.936;2023-11-19T02:39:50;100108.78;;;4.69;100.00
9764;BME280;4921;43.214;27.936;2023-11-19T02:42:17;100131.09;;;4.73;100.00
9764;BME280;4921;43.214;27.936;2023-11-19T02:44:44;100123.38;;;4.71;100.00
9764;BME280;4921;43.214;27.936;2023-11-19T02:47:13;100128.16;;;4.64;100.00
9764;BME280;4921;43.214;27.936;2023-11-19T02:49:40;100109.47;;;4.72;100.00
9764;BME280;4921;43.214;27.936;2023-11-19T02:52:08;100113.53;;;4.76;100.00
9764;BME280;4921;43.214;27.936;2023-11-19T02:54:36;100124.47;;;4.81;100.00
9764;BME280;4921;43.214;27.936;2023-11-19T02:57:03;100135.97;;;4.64;100.00
9764;BME280;4921;43.214;27.936;2023-11-19T02:59:30;100131.72;;;4.63;100.00
9764;BME280;4921;43.214;27.936;2023-11-19T03:02:04;100130.19;;;4.59;100.00
9764;BME280;4921;43.214;27.936;2023-11-19T03:04:33;100170.31;;;4.57;100.00
9764;BME280;4921;43.214;27.936;2023-11-19T03:07:00;100144.06;;;4.60;100.00
9764;BME280;4921;43.214;27.936;2023-11-19T03:09:27;100169.09;;;4.48;100.00
9764;BME280;4921;43.214;27.936;2023-11-19T03:11:55;100141.22;;;4.36;100.00
9764;BME280;4921;43.214;27.936;2023-11-19T03:14:22;100143.44;;;4.42;100.00
9764;BME280;4921;43.214;27.936;2023-11-19T03:16:49;100154.88;;;4.54;100.00
9764;BME280;4921;43.214;27.936;2023-11-19T03:19:16;100169.75;;;4.52;100.00
9764;BME280;4921;43.214;27.936;2023-11-19T03:21:44;100180.16;;;4.52;100.00
9764;BME280;4921;43.214;27.936;2023-11-19T03:24:13;100184.13;;;4.57;100.00
9764;BME280;4921;43.214;27.936;2023-11-19T03:26:41;100198.56;;;4.49;100.00
9764;BME280;4921;43.214;27.936;2023-11-19T03:29:08;100185.25;;;4.53;100.00
9764;BME280;4921;43.214;27.936;2023-11-19T03:31:35;100177.38;;;4.55;100.00
9764;BME280;4921;43.214;27.936;2023-11-19T03:34:02;100180.81;;;4.41;100.00
9764;BME280;4921;43.214;27.936;2023-11-19T03:36:32;100169.56;;;4.41;100.00
9764;BME280;4921;43.214;27.936;2023-11-19T03:39:00;100211.66;;;4.47;100.00
9764;BME280;4921;43.214;27.936;2023-11-19T03:41:28;100156.72;;;4.52;100.00
9764;BME280;4921;43.214;27.936;2023-11-19T03:43:56;100191.31;;;4.54;100.00
9764;BME280;4921;43.214;27.936;2023-11-19T03:46:23;100152.44;;;4.65;100.00
9764;BME280;4921;43.214;27.936;2023-11-19T03:48:50;100151.75;;;4.61;100.00
9764;BME280;4921;43.214;27.936;2023-11-19T03:51:17;100143.59;;;4.53;100.00
9764;BME280;4921;43.214;27.936;2023-11-19T03:53:44;100141.22;;;4.36;100.00
9764;BME280;4921;43.214;27.936;2023-11-19T03:56:13;100182.13;;;4.48;100.00
9764;BME280;4921;43.214;27.936;2023-11-19T03:58:40;100153.50;;;4.48;100.00
9764;BME280;4921;43.214;27.936;2023-11-19T04:01:11;100169.47;;;4.42;100.00
9764;BME280;4921;43.214;27.936;2023-11-19T04:03:38;100159.91;;;4.43;100.00
9764;BME280;4921;43.214;27.936;2023-11-19T04:06:06;100203.88;;;4.47;100.00
9764;BME280;4921;43.214;27.936;2023-11-19T04:08:33;100178.56;;;4.49;100.00
9764;BME280;4921;43.214;27.936;2023-11-19T04:11:01;100162.94;;;4.49;100.00
9764;BME280;4921;43.214;27.936;2023-11-19T04:13:29;100210.38;;;4.54;100.00
9764;BME280;4921;43.214;27.936;2023-11-19T04:15:56;100220.06;;;4.52;100.00
9764;BME280;4921;43.214;27.936;2023-11-19T04:18:23;100188.13;;;4.49;100.00
9764;BME280;4921;43.214;27.936;2023-11-19T04:20:50;100192.03;;;4.56;100.00
9764;BME280;4921;43.214;27.936;2023-11-19T04:23:17;100202.63;;;4.53;100.00
9764;BME280;4921;43.214;27.936;2023-11-19T04:25:44;100213.25;;;4.50;100.00
9764;BME280;4921;43.214;27.936;2023-11-19T04:28:11;100213.72;;;4.42;100.00
9764;BME280;4921;43.214;27.936;2023-11-19T04:30:40;100231.00;;;4.43;100.00
9764;BME280;4921;43.214;27.936;2023-11-19T04:33:07;100219.94;;;4.54;100.00
9764;BME280;4921;43.214;27.936;2023-11-19T04:35:33;100217.44;;;4.52;100.00
9764;BME280;4921;43.214;27.936;2023-11-19T04:38:00;100213.97;;;4.38;100.00
9764;BME280;4921;43.214;27.936;2023-11-19T04:40:27;100226.75;;;4.56;100.00
9764;BME280;4921;43.214;27.936;2023-11-19T04:42:54;100238.81;;;4.72;100.00
9764;BME280;4921;43.214;27.936;2023-11-19T04:45:21;100220.78;;;4.54;100.00
9764;BME280;4921;43.214;27.936;2023-11-19T04:47:50;100221.25;;;4.61;100.00
9764;BME280;4921;43.214;27.936;2023-11-19T04:50:16;100213.91;;;4.68;100.00
9764;BME280;4921;43.214;27.936;2023-11-19T04:52:44;100253.63;;;4.57;100.00
9764;BME280;4921;43.214;27.936;2023-11-19T04:55:12;100188.31;;;4.60;100.00
9764;BME280;4921;43.214;27.936;2023-11-19T04:57:39;100232.31;;;4.64;100.00
9764;BME280;4921;43.214;27.936;2023-11-19T05:00:07;100241.34;;;4.59;100.00
9764;BME280;4921;43.214;27.936;2023-11-19T05:02:36;100207.88;;;4.39;100.00
9764;BME280;4921;43.214;27.936;2023-11-19T05:05:05;100252.41;;;4.48;100.00
9764;BME280;4921;43.214;27.936;2023-11-19T05:07:32;100214.91;;;4.51;100.00
9764;BME280;4921;43.214;27.936;2023-11-19T05:09:59;100216.78;;;4.49;100.00
9764;BME280;4921;43.214;27.936;2023-11-19T05:12:26;100248.84;;;4.49;100.00
9764;BME280;4921;43.214;27.936;2023-11-19T05:14:53;100233.06;;;4.52;100.00
9764;BME280;4921;43.214;27.936;2023-11-19T05:17:20;100245.69;;;4.44;100.00
9764;BME280;4921;43.214;27.936;2023-11-19T05:19:47;100251.25;;;4.38;100.00
9764;BME280;4921;43.214;27.936;2023-11-19T05:22:16;100234.34;;;4.45;100.00
9764;BME280;4921;43.214;27.936;2023-11-19T05:24:43;100247.44;;;4.30;100.00
9764;BME280;4921;43.214;27.936;2023-11-19T05:27:10;100254.34;;;4.45;100.00
9764;BME280;4921;43.214;27.936;2023-11-19T05:29:39;100264.00;;;4.43;100.00
9764;BME280;4921;43.214;27.936;2023-11-19T05:32:06;100267.91;;;4.50;100.00
9764;BME280;4921;43.214;27.936;2023-11-19T05:34:33;100291.41;;;4.34;100.00
9764;BME280;4921;43.214;27.936;2023-11-19T05:37:00;100296.84;;;4.45;100.00
9764;BME280;4921;43.214;27.936;2023-11-19T05:39:29;100298.41;;;4.48;100.00
9764;BME280;4921;43.214;27.936;2023-11-19T05:41:56;100310.22;;;4.53;100.00
9764;BME280;4921;43.214;27.936;2023-11-19T05:44:23;100301.50;;;4.54;100.00
9764;BME280;4921;43.214;27.936;2023-11-19T05:46:50;100327.44;;;4.56;100.00
9764;BME280;4921;43.214;27.936;2023-11-19T05:49:17;100319.88;;;4.51;100.00
9764;BME280;4921;43.214;27.936;2023-11-19T05:51:44;100328.28;;;4.71;100.00
9764;BME280;4921;43.214;27.936;2023-11-19T05:54:11;100347.63;;;4.52;100.00
9764;BME280;4921;43.214;27.936;2023-11-19T05:56:40;100346.97;;;4.63;100.00
9764;BME280;4921;43.214;27.936;2023-11-19T05:59:07;100334.31;;;4.57;100.00
9764;BME280;4921;43.214;27.936;2023-11-19T06:01:40;100340.34;;;4.57;100.00
9764;BME280;4921;43.214;27.936;2023-11-19T06:04:08;100354.31;;;4.56;100.00
9764;BME280;4921;43.214;27.936;2023-11-19T06:06:35;100331.69;;;4.43;100.00
9764;BME280;4921;43.214;27.936;2023-11-19T06:09:02;100337.09;;;4.40;100.00
9764;BME280;4921;43.214;27.936;2023-11-19T06:11:32;100342.06;;;4.29;100.00
9764;BME280;4921;43.214;27.936;2023-11-19T06:14:00;100338.16;;;4.36;100.00
9764;BME280;4921;43.214;27.936;2023-11-19T06:16:27;100363.06;;;4.26;100.00
9764;BME280;4921;43.214;27.936;2023-11-19T06:18:54;100349.69;;;4.32;100.00
9764;BME280;4921;43.214;27.936;2023-11-19T06:21:21;100375.44;;;4.22;100.00
9764;BME280;4921;43.214;27.936;2023-11-19T06:23:48;100358.50;;;4.29;100.00
9764;BME280;4921;43.214;27.936;2023-11-19T06:26:17;100351.38;;;4.33;100.00
9764;BME280;4921;43.214;27.936;2023-11-19T06:28:44;100359.09;;;4.34;100.00
9764;BME280;4921;43.214;27.936;2023-11-19T06:31:13;100348.47;;;4.23;100.00
9764;BME280;4921;43.214;27.936;2023-11-19T06:33:41;100357.53;;;4.16;100.00
9764;BME280;4921;43.214;27.936;2023-11-19T06:36:09;100382.03;;;4.28;100.00
9764;BME280;4921;43.214;27.936;2023-11-19T06:38:36;100359.59;;;4.11;100.00
9764;BME280;4921;43.214;27.936;2023-11-19T06:41:07;100376.19;;;4.09;100.00
9764;BME280;4921;43.214;27.936;2023-11-19T06:43:34;100369.28;;;4.23;100.00
9764;BME280;4921;43.214;27.936;2023-11-19T06:46:01;100370.63;;;4.15;100.00
9764;BME280;4921;43.214;27.936;2023-11-19T06:48:32;100378.19;;;4.19;100.00
9764;BME280;4921;43.214;27.936;2023-11-19T06:51:00;100363.78;;;4.14;100.00
9764;BME280;4921;43.214;27.936;2023-11-19T06:53:27;100374.19;;;4.14;100.00
9764;BME280;4921;43.214;27.936;2023-11-19T06:55:55;100396.09;;;4.10;100.00
9764;BME280;4921;43.214;27.936;2023-11-19T06:58:22;100384.09;;;4.07;100.00
9764;BME280;4921;43.214;27.936;2023-11-19T07:00:49;100380.13;;;4.16;100.00
9764;BME280;4921;43.214;27.936;2023-11-19T07:03:16;100404.59;;;4.27;100.00
9764;BME280;4921;43.214;27.936;2023-11-19T07:05:45;100388.72;;;4.32;100.00
9764;BME280;4921;43.214;27.936;2023-11-19T07:08:12;100403.44;;;4.33;100.00
9764;BME280;4921;43.214;27.936;2023-11-19T07:10:39;100428.88;;;4.12;100.00
9764;BME280;4921;43.214;27.936;2023-11-19T07:13:06;100430.59;;;3.98;100.00
9764;BME280;4921;43.214;27.936;2023-11-19T07:15:33;100428.84;;;3.98;100.00
9764;BME280;4921;43.214;27.936;2023-11-19T07:18:00;100409.72;;;3.83;100.00
9764;BME280;4921;43.214;27.936;2023-11-19T07:20:27;100431.19;;;3.87;100.00
9764;BME280;4921;43.214;27.936;2023-11-19T07:22:55;100439.50;;;3.94;100.00
9764;BME280;4921;43.214;27.936;2023-11-19T07:25:22;100452.50;;;4.09;100.00
9764;BME280;4921;43.214;27.936;2023-11-19T07:27:51;100438.28;;;3.99;100.00
9764;BME280;4921;43.214;27.936;2023-11-19T07:30:18;100450.28;;;4.17;100.00
9764;BME280;4921;43.214;27.936;2023-11-19T07:32:45;100457.19;;;4.18;100.00
9764;BME280;4921;43.214;27.936;2023-11-19T07:35:12;100465.41;;;4.11;100.00
9764;BME280;4921;43.214;27.936;2023-11-19T07:37:39;100450.75;;;4.10;100.00
9764;BME280;4921;43.214;27.936;2023-11-19T07:40:09;100455.34;;;4.20;100.00
9764;BME280;4921;43.214;27.936;2023-11-19T07:42:36;100452.06;;;4.01;100.00
9764;BME280;4921;43.214;27.936;2023-11-19T07:45:04;100444.78;;;3.92;100.00
9764;BME280;4921;43.214;27.936;2023-11-19T07:47:32;100456.25;;;4.04;100.00
9764;BME280;4921;43.214;27.936;2023-11-19T07:49:59;100439.84;;;4.03;100.00
9764;BME280;4921;43.214;27.936;2023-11-19T07:52:26;100477.91;;;4.04;100.00
9764;BME280;4921;43.214;27.936;2023-11-19T07:54:54;100454.94;;;3.97;100.00
9764;BME280;4921;43.214;27.936;2023-11-19T07:57:22;100448.28;;;4.07;100.00
9764;BME280;4921;43.214;27.936;2023-11-19T07:59:53;100439.91;;;4.02;100.00
9764;BME280;4921;43.214;27.936;2023-11-19T08:02:19;100465.25;;;3.98;100.00
9764;BME280;4921;43.214;27.936;2023-11-19T08:04:47;100453.66;;;4.04;100.00
9764;BME280;4921;43.214;27.936;2023-11-19T08:07:17;100450.91;;;3.91;100.00
9764;BME280;4921;43.214;27.936;2023-11-19T08:09:44;100467.75;;;4.00;100.00
9764;BME280;4921;43.214;27.936;2023-11-19T08:12:11;100463.41;;;4.00;100.00
9764;BME280;4921;43.214;27.936;2023-11-19T08:14:41;100448.19;;;4.08;100.00
9764;BME280;4921;43.214;27.936;2023-11-19T08:17:09;100446.28;;;4.12;100.00
9764;BME280;4921;43.214;27.936;2023-11-19T08:19:36;100458.94;;;4.18;100.00
9764;BME280;4921;43.214;27.936;2023-11-19T08:22:03;100473.47;;;4.06;100.00
9764;BME280;4921;43.214;27.936;2023-11-19T08:24:30;100477.81;;;4.06;100.00
9764;BME280;4921;43.214;27.936;2023-11-19T08:26:57;100471.38;;;4.13;100.00
9764;BME280;4921;43.214;27.936;2023-11-19T08:29:24;100491.53;;;4.09;100.00
9764;BME280;4921;43.214;27.936;2023-11-19T08:31:52;100493.28;;;4.09;100.00
9764;BME280;4921;43.214;27.936;2023-11-19T08:34:21;100497.28;;;4.14;100.00
9764;BME280;4921;43.214;27.936;2023-11-19T08:36:50;100504.78;;;4.05;100.00
9764;BME280;4921;43.214;27.936;2023-11-19T08:39:18;100469.75;;;4.10;100.00
9764;BME280;4921;43.214;27.936;2023-11-19T08:41:46;100486.47;;;4.06;100.00
9764;BME280;4921;43.214;27.936;2023-11-19T08:44:13;100466.75;;;4.02;100.00
9764;BME280;4921;43.214;27.936;2023-11-19T08:46:46;100504.34;;;3.97;100.00
9764;BME280;4921;43.214;27.936;2023-11-19T08:49:16;100500.31;;;3.91;100.00
9764;BME280;4921;43.214;27.936;2023-11-19T08:51:43;100486.81;;;4.00;100.00
9764;BME280;4921;43.214;27.936;2023-11-19T08:54:10;100481.84;;;3.96;100.00
9764;BME280;4921;43.214;27.936;2023-11-19T08:56:38;100480.19;;;3.95;100.00
9764;BME280;4921;43.214;27.936;2023-11-19T08:59:06;100480.44;;;3.90;100.00
9764;BME280;4921;43.214;27.936;2023-11-19T09:01:34;100462.06;;;3.93;100.00
9764;BME280;4921;43.214;27.936;2023-11-19T09:04:01;100464.75;;;3.92;100.00
9764;BME280;4921;43.214;27.936;2023-11-19T09:06:30;100454.25;;;3.93;100.00
9764;BME280;4921;43.214;27.936;2023-11-19T09:08:57;100449.28;;;4.04;100.00
9764;BME280;4921;43.214;27.936;2023-11-19T09:11:27;100454.50;;;4.04;100.00
9764;BME280;4921;43.214;27.936;2023-11-19T09:13:54;100471.72;;;4.07;100.00
9764;BME280;4921;43.214;27.936;2023-11-19T09:16:21;100455.00;;;3.95;100.00
9764;BME280;4921;43.214;27.936;2023-11-19T09:18:48;100451.16;;;4.02;100.00
9764;BME280;4921;43.214;27.936;2023-11-19T09:21:15;100440.25;;;3.96;100.00
9764;BME280;4921;43.214;27.936;2023-11-19T09:23:44;100434.34;;;4.08;100.00
9764;BME280;4921;43.214;27.936;2023-11-19T09:26:13;100441.91;;;4.12;100.00
9764;BME280;4921;43.214;27.936;2023-11-19T09:28:40;100433.78;;;4.03;100.00
9764;BME280;4921;43.214;27.936;2023-11-19T09:31:17;100421.63;;;4.03;100.00
9764;BME280;4921;43.214;27.936;2023-11-19T09:33:45;100429.72;;;4.13;100.00
9764;BME280;4921;43.214;27.936;2023-11-19T09:36:12;100424.63;;;4.11;100.00
9764;BME280;4921;43.214;27.936;2023-11-19T09:38:42;100416.22;;;4.06;100.00
9764;BME280;4921;43.214;27.936;2023-11-19T09:41:10;100443.50;;;4.15;100.00
9764;BME280;4921;43.214;27.936;2023-11-19T09:43:39;100437.13;;;4.20;100.00
9764;BME280;4921;43.214;27.936;2023-11-19T09:46:09;100455.34;;;4.20;100.00
9764;BME280;4921;43.214;27.936;2023-11-19T09:48:38;100465.97;;;4.31;100.00
9764;BME280;4921;43.214;27.936;2023-11-19T09:51:06;100443.31;;;4.33;100.00
9764;BME280;4921;43.214;27.936;2023-11-19T09:53:34;100432.56;;;4.39;100.00
9764;BME280;4921;43.214;27.936;2023-11-19T09:56:01;100467.91;;;4.28;100.00
9764;BME280;4921;43.214;27.936;2023-11-19T09:58:31;100447.31;;;4.39;100.00
9764;BME280;4921;43.214;27.936;2023-11-19T10:00:59;100441.78;;;4.29;100.00
9764;BME280;4921;43.214;27.936;2023-11-19T10:03:27;100446.19;;;4.29;100.00
9764;BME280;4921;43.214;27.936;2023-11-19T10:05:55;100432.44;;;4.41;100.00
9764;BME280;4921;43.214;27.936;2023-11-19T10:08:22;100439.41;;;4.40;100.00
9764;BME280;4921;43.214;27.936;2023-11-19T10:10:49;100420.09;;;4.44;100.00
9764;BME280;4921;43.214;27.936;2023-11-19T10:13:17;100425.88;;;4.49;100.00
9764;BME280;4921;43.214;27.936;2023-11-19T10:15:47;100465.69;;;4.51;100.00
9764;BME280;4921;43.214;27.936;2023-11-19T10:18:15;100461.47;;;4.49;100.00
9764;BME280;4921;43.214;27.936;2023-11-19T10:20:42;100468.59;;;4.61;100.00
9764;BME280;4921;43.214;27.936;2023-11-19T10:23:10;100481.00;;;4.72;100.00
9764;BME280;4921;43.214;27.936;2023-11-19T10:25:37;100482.94;;;4.68;100.00
9764;BME280;4921;43.214;27.936;2023-11-19T10:28:04;100480.28;;;4.54;100.00
9764;BME280;4921;43.214;27.936;2023-11-19T10:30:41;100475.94;;;4.54;100.00
9764;BME280;4921;43.214;27.936;2023-11-19T10:33:10;100472.03;;;4.61;100.00
9764;BME280;4921;43.214;27.936;2023-11-19T10:35:52;100482.00;;;4.69;100.00
9764;BME280;4921;43.214;27.936;2023-11-19T10:38:19;100498.22;;;4.74;100.00
9764;BME280;4921;43.214;27.936;2023-11-19T10:40:47;100497.16;;;4.92;100.00
9764;BME280;4921;43.214;27.936;2023-11-19T10:43:15;100499.59;;;5.09;100.00
9764;BME280;4921;43.214;27.936;2023-11-19T10:45:42;100495.50;;;5.05;100.00
9764;BME280;4921;43.214;27.936;2023-11-19T10:48:11;100483.31;;;5.06;100.00
9764;BME280;4921;43.214;27.936;2023-11-19T10:50:39;100516.25;;;5.07;100.00
9764;BME280;4921;43.214;27.936;2023-11-19T10:53:07;100508.78;;;5.01;100.00
9764;BME280;4921;43.214;27.936;2023-11-19T10:55:37;100496.09;;;5.24;100.00
9764;BME280;4921;43.214;27.936;2023-11-19T10:58:05;100472.56;;;5.26;100.00
9764;BME280;4921;43.214;27.936;2023-11-19T11:00:38;100477.94;;;5.37;100.00
9764;BME280;4921;43.214;27.936;2023-11-19T11:03:15;100484.00;;;5.37;100.00
9764;BME280;4921;43.214;27.936;2023-11-19T11:05:42;100491.06;;;5.35;100.00
9764;BME280;4921;43.214;27.936;2023-11-19T11:08:09;100489.69;;;5.44;100.00
9764;BME280;4921;43.214;27.936;2023-11-19T11:10:42;100483.34;;;5.48;100.00
9764;BME280;4921;43.214;27.936;2023-11-19T11:13:09;100511.47;;;5.57;100.00
9764;BME280;4921;43.214;27.936;2023-11-19T11:15:37;100507.38;;;5.53;100.00
9764;BME280;4921;43.214;27.936;2023-11-19T11:18:08;100496.66;;;5.72;100.00
9764;BME280;4921;43.214;27.936;2023-11-19T11:20:37;100492.78;;;5.65;100.00
9764;BME280;4921;43.214;27.936;2023-11-19T11:26:32;100479.16;;;5.60;100.00
9764;BME280;4921;43.214;27.936;2023-11-19T11:29:04;100473.56;;;5.80;100.00
9764;BME280;4921;43.214;27.936;2023-11-19T11:31:39;100506.44;;;5.82;100.00
9764;BME280;4921;43.214;27.936;2023-11-19T11:34:58;100487.53;;;5.79;100.00
9764;BME280;4921;43.214;27.936;2023-11-19T11:37:33;100504.66;;;5.83;100.00
9764;BME280;4921;43.214;27.936;2023-11-19T11:40:01;100519.59;;;5.95;100.00
9764;BME280;4921;43.214;27.936;2023-11-19T11:42:36;100535.16;;;5.96;100.00
9764;BME280;4921;43.214;27.936;2023-11-19T11:45:05;100524.69;;;5.82;100.00
9764;BME280;4921;43.214;27.936;2023-11-19T11:48:11;100541.06;;;5.86;100.00
9764;BME280;4921;43.214;27.936;2023-11-19T11:50:49;100572.34;;;6.00;100.00
9764;BME280;4921;43.214;27.936;2023-11-19T11:53:19;100580.56;;;6.08;100.00
9764;BME280;4921;43.214;27.936;2023-11-19T11:55:56;100607.19;;;6.13;100.00
9764;BME280;4921;43.214;27.936;2023-11-19T11:58:42;100595.13;;;6.39;100.00
9764;BME280;4921;43.214;27.936;2023-11-19T12:01:15;100599.16;;;6.44;100.00
9764;BME280;4921;43.214;27.936;2023-11-19T12:03:46;100610.88;;;6.51;100.00
9764;BME280;4921;43.214;27.936;2023-11-19T12:06:13;100620.75;;;6.60;100.00
9764;BME280;4921;43.214;27.936;2023-11-19T12:08:41;100614.81;;;6.85;100.00
9764;BME280;4921;43.214;27.936;2023-11-19T12:11:08;100606.75;;;6.88;100.00
9764;BME280;4921;43.214;27.936;2023-11-19T12:13:53;100611.25;;;6.86;100.00
9764;BME280;4921;43.214;27.936;2023-11-19T12:16:24;100615.25;;;6.91;100.00
9764;BME280;4921;43.214;27.936;2023-11-19T12:18:54;100625.31;;;6.98;100.00
9764;BME280;4921;43.214;27.936;2023-11-19T12:21:30;100605.44;;;6.95;100.00
9764;BME280;4921;43.214;27.936;2023-11-19T12:24:00;100606.56;;;6.91;100.00
9764;BME280;4921;43.214;27.936;2023-11-19T12:26:37;100622.69;;;6.98;100.00
9764;BME280;4921;43.214;27.936;2023-11-19T12:29:05;100642.31;;;6.90;100.00
9764;BME280;4921;43.214;27.936;2023-11-19T12:31:32;100641.72;;;7.00;100.00
9764;BME280;4921;43.214;27.936;2023-11-19T12:34:08;100646.47;;;6.80;100.00
9764;BME280;4921;43.214;27.936;2023-11-19T12:36:41;100648.94;;;6.96;100.00
9764;BME280;4921;43.214;27.936;2023-11-19T12:39:10;100631.56;;;6.95;100.00
9764;BME280;4921;43.214;27.936;2023-11-19T12:41:52;100679.75;;;6.91;100.00
9764;BME280;4921;43.214;27.936;2023-11-19T12:44:20;100673.56;;;7.06;100.00
9764;BME280;4921;43.214;27.936;2023-11-19T12:46:59;100675.97;;;7.09;100.00
9764;BME280;4921;43.214;27.936;2023-11-19T12:49:41;100691.72;;;7.22;100.00
9764;BME280;4921;43.214;27.936;2023-11-19T12:52:12;100696.16;;;7.07;100.00
9764;BME280;4921;43.214;27.936;2023-11-19T12:54:40;100690.94;;;7.07;100.00
9764;BME280;4921;43.214;27.936;2023-11-19T12:57:07;100717.81;;;7.09;100.00
9764;BME280;4921;43.214;27.936;2023-11-19T12:59:34;100719.03;;;7.04;100.00
9764;BME280;4921;43.214;27.936;2023-11-19T13:02:01;100707.72;;;7.03;100.00
9764;BME280;4921;43.214;27.936;2023-11-19T13:04:31;100719.47;;;7.10;100.00
9764;BME280;4921;43.214;27.936;2023-11-19T13:06:58;100718.56;;;7.11;100.00
9764;BME280;4921;43.214;27.936;2023-11-19T13:09:26;100722.84;;;7.12;100.00
9764;BME280;4921;43.214;27.936;2023-11-19T13:11:56;100752.25;;;7.16;100.00